Time,TemperatureF,DewpointF,PressureIn,WindDirection,WindDirectionDegrees,WindSpeedMPH,WindSpeedGustMPH,Humidity,HourlyPrecipIn,Conditions,Clouds,dailyrainin,SoftwareType,DateUTC
2013-06-07 00:03:00,62.0,61.0,29.78,ENE,76,3.0,5.0,98,0.01,,,0.39,,2013-06-07 04:03:00,
2013-06-07 00:12:00,62.0,61.0,29.78,ENE,76,3.0,5.0,98,0.01,,,0.39,,2013-06-07 04:12:00,
2013-06-07 00:23:00,62.0,61.0,29.78,ENE,62,1.0,6.0,98,0.01,,,0.39,,2013-06-07 04:23:00,
2013-06-07 00:33:00,62.0,61.0,29.78,ESE,103,0.0,3.0,98,0.01,,,0.39,,2013-06-07 04:33:00,
2013-06-07 00:42:00,62.0,61.0,29.78,ESE,103,0.0,3.0,98,0.01,,,0.39,,2013-06-07 04:42:00,
2013-06-07 00:53:00,62.0,61.0,29.78,ENE,71,3.0,4.0,98,0.01,,,0.39,,2013-06-07 04:53:00,
2013-06-07 01:03:00,62.0,62.0,29.78,ENE,76,0.0,3.0,99,0.00,,,0.39,,2013-06-07 05:03:00,
2013-06-07 01:12:00,62.0,62.0,29.78,ENE,76,0.0,3.0,99,0.00,,,0.39,,2013-06-07 05:12:00,
2013-06-07 01:22:00,62.0,62.0,29.78,ENE,76,0.0,3.0,99,0.00,,,0.39,,2013-06-07 05:22:00,
2013-06-07 01:32:00,62.0,62.0,29.77,East,100,1.0,3.0,99,0.00,,,0.39,,2013-06-07 05:32:00,
2013-06-07 01:42:00,62.0,62.0,29.77,East,100,1.0,3.0,99,0.00,,,0.39,,2013-06-07 05:42:00,
2013-06-07 01:52:00,62.0,62.0,29.77,East,100,1.0,3.0,99,0.00,,,0.39,,2013-06-07 05:52:00,
2013-06-07 02:02:00,62.0,62.0,29.77,East,85,0.0,4.0,99,0.00,,,0.39,,2013-06-07 06:02:00,
2013-06-07 02:12:00,62.0,62.0,29.77,East,85,0.0,4.0,99,0.00,,,0.39,,2013-06-07 06:12:00,
2013-06-07 02:22:00,62.0,62.0,29.77,East,85,0.0,4.0,99,0.00,,,0.39,,2013-06-07 06:22:00,
2013-06-07 02:32:00,62.0,62.0,29.76,East,94,2.0,4.0,99,0.01,,,0.40,,2013-06-07 06:32:00,
2013-06-07 02:42:00,62.0,62.0,29.76,East,94,2.0,4.0,99,0.01,,,0.40,,2013-06-07 06:42:00,
2013-06-07 02:52:00,62.0,62.0,29.76,East,94,2.0,4.0,99,0.01,,,0.40,,2013-06-07 06:52:00,
2013-06-07 03:02:00,62.0,62.0,29.74,East,83,1.0,5.0,99,0.01,,,0.40,,2013-06-07 07:02:00,
2013-06-07 03:12:00,62.0,62.0,29.74,East,83,1.0,5.0,99,0.01,,,0.40,,2013-06-07 07:12:00,
2013-06-07 03:22:00,62.0,62.0,29.74,East,83,1.0,5.0,99,0.01,,,0.40,,2013-06-07 07:22:00,
2013-06-07 03:32:00,62.0,62.0,29.74,East,83,0.0,3.0,99,0.01,,,0.40,,2013-06-07 07:32:00,
2013-06-07 03:42:00,62.0,62.0,29.74,East,83,0.0,3.0,99,0.01,,,0.40,,2013-06-07 07:42:00,
2013-06-07 03:52:00,62.0,62.0,29.74,East,95,0.0,3.0,99,0.00,,,0.40,,2013-06-07 07:52:00,
2013-06-07 04:02:00,62.0,62.0,29.73,ESE,105,0.0,4.0,99,0.00,,,0.40,,2013-06-07 08:02:00,
2013-06-07 04:12:00,62.0,62.0,29.73,ESE,105,0.0,4.0,99,0.00,,,0.40,,2013-06-07 08:12:00,
2013-06-07 04:22:00,62.0,62.0,29.72,ENE,75,0.0,4.0,99,0.00,,,0.40,,2013-06-07 08:22:00,
2013-06-07 04:32:00,62.0,62.0,29.72,East,98,0.0,2.0,99,0.00,,,0.39,,2013-06-07 08:32:00,
2013-06-07 04:43:00,62.0,62.0,29.72,East,98,0.0,2.0,99,0.00,,,0.39,,2013-06-07 08:43:00,
2013-06-07 04:52:00,62.0,62.0,29.72,East,98,0.0,2.0,99,0.00,,,0.39,,2013-06-07 08:52:00,
2013-06-07 05:02:00,62.0,62.0,29.71,East,98,0.0,3.0,99,0.00,,,0.39,,2013-06-07 09:02:00,
2013-06-07 05:12:00,62.0,62.0,29.71,East,98,0.0,3.0,99,0.00,,,0.39,,2013-06-07 09:12:00,
2013-06-07 05:22:00,62.0,62.0,29.71,East,98,0.0,2.0,99,0.00,,,0.39,,2013-06-07 09:22:00,
2013-06-07 05:32:00,62.0,62.0,29.71,East,87,0.0,5.0,99,0.00,,,0.31,,2013-06-07 09:32:00,
2013-06-07 05:43:00,62.0,62.0,29.71,East,87,0.0,5.0,99,0.00,,,0.31,,2013-06-07 09:43:00,
2013-06-07 05:53:00,62.0,62.0,29.71,ESE,103,0.0,3.0,99,0.00,,,0.31,,2013-06-07 09:53:00,
2013-06-07 06:03:00,62.0,62.0,29.71,ESE,119,0.0,4.0,99,0.00,,,0.31,,2013-06-07 10:03:00,
2013-06-07 06:13:00,62.0,62.0,29.71,ESE,119,0.0,4.0,99,0.00,,,0.31,,2013-06-07 10:13:00,
2013-06-07 06:23:00,62.0,62.0,29.71,ESE,119,0.0,1.0,99,0.00,,,0.31,,2013-06-07 10:23:00,
2013-06-07 06:33:00,62.0,62.0,29.71,ESE,113,0.0,2.0,99,0.00,,,0.25,,2013-06-07 10:33:00,
2013-06-07 06:42:00,62.0,62.0,29.71,ESE,113,0.0,2.0,99,0.00,,,0.25,,2013-06-07 10:42:00,
2013-06-07 06:52:00,62.0,62.0,29.70,East,80,1.0,5.0,99,0.00,,,0.25,,2013-06-07 10:52:00,
2013-06-07 07:02:00,62.0,62.0,29.70,ENE,64,0.0,4.0,99,0.00,,,0.25,,2013-06-07 11:02:00,
2013-06-07 07:12:00,62.0,62.0,29.70,ENE,64,0.0,4.0,99,0.00,,,0.25,,2013-06-07 11:12:00,
2013-06-07 07:22:00,62.0,62.0,29.70,ENE,64,1.0,2.0,99,0.00,,,0.25,,2013-06-07 11:22:00,
2013-06-07 07:32:00,62.0,62.0,29.70,ENE,64,1.0,3.0,99,0.00,,,0.21,,2013-06-07 11:32:00,
2013-06-07 07:42:00,62.0,62.0,29.70,ENE,64,1.0,3.0,99,0.00,,,0.21,,2013-06-07 11:42:00,
2013-06-07 07:52:00,63.0,63.0,29.70,NE,49,0.0,4.0,99,0.00,,,0.21,,2013-06-07 11:52:00,
2013-06-07 08:02:00,63.0,63.0,29.69,NE,49,0.0,3.0,99,0.01,,,0.22,,2013-06-07 12:02:00,
2013-06-07 08:13:00,63.0,63.0,29.69,NE,49,0.0,3.0,99,0.01,,,0.22,,2013-06-07 12:13:00,
2013-06-07 08:22:00,63.0,63.0,29.68,NE,50,0.0,5.0,99,0.01,,,0.22,,2013-06-07 12:22:00,
2013-06-07 08:32:00,63.0,63.0,29.68,ESE,105,1.0,3.0,99,0.02,,,0.20,,2013-06-07 12:32:00,
2013-06-07 08:42:00,63.0,63.0,29.68,ESE,105,1.0,3.0,99,0.02,,,0.20,,2013-06-07 12:42:00,
2013-06-07 08:52:00,63.0,63.0,29.68,ENE,78,1.0,3.0,99,0.02,,,0.20,,2013-06-07 12:52:00,
2013-06-07 09:02:00,63.0,63.0,29.68,ESE,102,0.0,3.0,99,0.02,,,0.21,,2013-06-07 13:02:00,
2013-06-07 09:13:00,63.0,63.0,29.68,ESE,102,0.0,3.0,99,0.02,,,0.21,,2013-06-07 13:13:00,
2013-06-07 09:22:00,64.0,64.0,29.68,NE,55,0.0,6.0,99,0.02,,,0.21,,2013-06-07 13:22:00,
2013-06-07 09:32:00,64.0,63.0,29.68,NE,39,3.0,7.0,98,0.02,,,0.20,,2013-06-07 13:32:00,
2013-06-07 09:43:00,64.0,63.0,29.68,NE,39,3.0,7.0,98,0.02,,,0.20,,2013-06-07 13:43:00,
2013-06-07 09:52:00,65.0,64.0,29.68,NE,52,2.0,6.0,97,0.03,,,0.21,,2013-06-07 13:52:00,
2013-06-07 10:03:00,66.0,65.0,29.67,SE,145,0.0,4.0,96,0.02,,,0.21,,2013-06-07 14:03:00,
2013-06-07 10:13:00,66.0,65.0,29.67,SE,145,0.0,4.0,96,0.02,,,0.21,,2013-06-07 14:13:00,
2013-06-07 10:23:00,66.0,65.0,29.67,SE,146,0.0,5.0,95,0.02,,,0.22,,2013-06-07 14:23:00,
2013-06-07 10:33:00,66.0,65.0,29.67,ESE,123,1.0,6.0,95,0.02,,,0.21,,2013-06-07 14:33:00,
2013-06-07 10:42:00,66.0,65.0,29.67,ESE,123,1.0,6.0,95,0.02,,,0.21,,2013-06-07 14:42:00,
2013-06-07 10:52:00,67.0,65.0,29.67,East,82,2.0,4.0,93,0.02,,,0.22,,2013-06-07 14:52:00,
2013-06-07 11:03:00,67.0,65.0,29.66,SE,144,2.0,5.0,93,0.02,,,0.22,,2013-06-07 15:03:00,
2013-06-07 11:12:00,67.0,65.0,29.66,SE,144,2.0,5.0,93,0.02,,,0.22,,2013-06-07 15:12:00,
2013-06-07 11:23:00,67.0,65.0,29.65,ENE,67,1.0,5.0,92,0.02,,,0.23,,2013-06-07 15:23:00,
2013-06-07 11:33:00,68.0,65.0,29.65,ENE,59,2.0,6.0,90,0.02,,,0.21,,2013-06-07 15:33:00,
2013-06-07 11:43:00,68.0,65.0,29.65,ENE,59,2.0,6.0,90,0.02,,,0.21,,2013-06-07 15:43:00,
2013-06-07 11:53:00,69.0,66.0,29.65,ENE,67,1.0,5.0,89,0.01,,,0.21,,2013-06-07 15:53:00,
2013-06-07 12:03:00,69.0,65.0,29.65,ESE,102,2.0,6.0,86,0.02,,,0.22,,2013-06-07 16:03:00,
2013-06-07 12:13:00,69.0,65.0,29.65,ESE,102,2.0,6.0,86,0.02,,,0.22,,2013-06-07 16:13:00,
2013-06-07 12:22:00,70.0,65.0,29.65,ENE,70,4.0,7.0,85,0.01,,,0.22,,2013-06-07 16:22:00,
2013-06-07 12:33:00,70.0,66.0,29.65,North,9,0.0,5.0,87,0.01,,,0.21,,2013-06-07 16:33:00,
2013-06-07 12:43:00,70.0,66.0,29.65,North,9,0.0,5.0,87,0.01,,,0.21,,2013-06-07 16:43:00,
2013-06-07 12:53:00,70.0,65.0,29.64,ENE,69,5.0,9.0,83,0.02,,,0.22,,2013-06-07 16:53:00,
2013-06-07 13:03:00,71.0,66.0,29.64,ENE,57,5.0,11.0,83,0.01,,,0.22,,2013-06-07 17:03:00,
2013-06-07 13:13:00,71.0,66.0,29.64,ENE,57,5.0,11.0,83,0.01,,,0.22,,2013-06-07 17:13:00,
2013-06-07 13:23:00,71.0,65.0,29.63,NE,36,5.0,8.0,82,0.01,,,0.22,,2013-06-07 17:23:00,
2013-06-07 13:32:00,71.0,65.0,29.63,East,84,2.0,8.0,82,0.01,,,0.21,,2013-06-07 17:32:00,
2013-06-07 13:43:00,71.0,65.0,29.63,East,84,2.0,8.0,82,0.01,,,0.21,,2013-06-07 17:43:00,
2013-06-07 13:52:00,71.0,65.0,29.62,NE,43,3.0,8.0,81,0.01,,,0.22,,2013-06-07 17:52:00,
2013-06-07 14:10:00,70.0,65.0,29.61,NE,36,4.0,10.0,83,0.01,,,0.22,,2013-06-07 18:10:00,
2013-06-07 14:20:00,70.0,65.0,29.61,NE,36,4.0,10.0,83,0.01,,,0.22,,2013-06-07 18:20:00,
2013-06-07 14:27:00,70.0,65.0,29.61,NE,52,6.0,10.0,84,0.01,,,0.22,,2013-06-07 18:27:00,
2013-06-07 14:37:00,70.0,65.0,29.60,NE,55,4.0,9.0,85,0.01,,,0.21,,2013-06-07 18:37:00,
2013-06-07 14:56:00,70.0,65.0,29.61,North,10,3.0,8.0,83,0.00,,,0.21,,2013-06-07 18:56:00,
2013-06-07 15:08:00,71.0,66.0,29.60,NE,41,2.0,7.0,83,0.00,,,0.21,,2013-06-07 19:08:00,
2013-06-07 15:15:00,71.0,66.0,29.60,NE,41,2.0,7.0,83,0.00,,,0.21,,2013-06-07 19:15:00,
2013-06-07 15:29:00,71.0,66.0,29.60,West,275,3.0,9.0,83,0.00,,,0.21,,2013-06-07 19:29:00,
2013-06-07 15:55:00,72.0,66.0,29.60,West,269,3.0,8.0,81,0.01,,,0.20,,2013-06-07 19:55:00,
2013-06-07 16:08:00,70.0,66.0,29.60,NW,311,1.0,6.0,87,0.01,,,0.20,,2013-06-07 20:08:00,
2013-06-07 16:17:00,70.0,66.0,29.60,NW,311,1.0,6.0,87,0.01,,,0.20,,2013-06-07 20:17:00,
2013-06-07 16:27:00,71.0,67.0,29.60,WNW,289,3.0,8.0,88,0.01,,,0.19,,2013-06-07 20:27:00,
2013-06-07 16:39:00,71.0,67.0,29.61,NW,311,2.0,9.0,86,0.00,,,0.19,,2013-06-07 20:39:00,
2013-06-07 16:48:00,71.0,67.0,29.61,NW,311,2.0,9.0,86,0.00,,,0.19,,2013-06-07 20:48:00,
2013-06-07 16:58:00,70.0,66.0,29.61,WNW,282,1.0,6.0,86,0.00,,,0.19,,2013-06-07 20:58:00,
2013-06-07 17:05:00,70.0,66.0,29.61,NNW,329,4.0,8.0,88,0.00,,,0.19,,2013-06-07 21:05:00,
2013-06-07 17:20:00,70.0,66.0,29.61,NNW,329,4.0,8.0,88,0.00,,,0.19,,2013-06-07 21:20:00,
2013-06-07 17:29:00,69.0,65.0,29.62,West,275,3.0,7.0,87,0.00,,,0.19,,2013-06-07 21:29:00,
2013-06-07 17:45:00,70.0,65.0,29.62,WNW,282,5.0,10.0,84,0.00,,,0.18,,2013-06-07 21:45:00,
2013-06-07 17:56:00,70.0,65.0,29.63,NNW,341,4.0,7.0,83,0.00,,,0.18,,2013-06-07 21:56:00,
2013-06-07 18:09:00,70.0,64.0,29.63,NNW,340,5.0,12.0,82,0.00,,,0.18,,2013-06-07 22:09:00,
2013-06-07 18:23:00,70.0,64.0,29.63,NNW,340,5.0,12.0,82,0.00,,,0.18,,2013-06-07 22:23:00,
2013-06-07 18:39:00,69.0,64.0,29.65,WNW,302,4.0,12.0,83,0.00,,,0.17,,2013-06-07 22:39:00,
2013-06-07 18:48:00,69.0,64.0,29.65,WNW,302,4.0,12.0,83,0.00,,,0.17,,2013-06-07 22:48:00,
2013-06-07 19:00:00,68.0,63.0,29.65,West,281,1.0,8.0,85,0.00,,,0.17,,2013-06-07 23:00:00,
2013-06-07 19:09:00,68.0,63.0,29.66,North,355,4.0,11.0,83,0.00,,,0.17,,2013-06-07 23:09:00,
2013-06-07 19:19:00,68.0,63.0,29.66,North,355,4.0,11.0,83,0.00,,,0.17,,2013-06-07 23:19:00,
2013-06-07 19:31:00,67.0,62.0,29.66,NE,52,3.0,8.0,84,0.00,,,0.17,,2013-06-07 23:31:00,
2013-06-07 19:51:00,67.0,62.0,29.68,NNW,343,4.0,9.0,83,0.00,,,0.17,,2013-06-07 23:51:00,
2013-06-07 20:14:00,67.0,61.0,29.69,NNW,345,4.0,8.0,82,0.00,,,0.17,,2013-06-08 00:14:00,
2013-06-07 20:30:00,67.0,61.0,29.69,West,270,1.0,8.0,82,0.00,,,0.17,,2013-06-08 00:30:00,
2013-06-07 20:45:00,66.0,60.0,29.70,WNW,287,5.0,8.0,81,0.01,,,0.17,,2013-06-08 00:45:00,
2013-06-07 20:56:00,66.0,60.0,29.71,West,273,2.0,11.0,81,0.01,,,0.17,,2013-06-08 00:56:00,
2013-06-07 21:08:00,65.0,59.0,29.72,WNW,286,3.0,7.0,82,0.01,,,0.17,,2013-06-08 01:08:00,
2013-06-07 21:29:00,65.0,60.0,29.72,NW,323,1.0,6.0,83,0.01,,,0.17,,2013-06-08 01:29:00,
2013-06-07 21:39:00,64.0,59.0,29.73,West,273,2.0,5.0,84,0.01,,,0.16,,2013-06-08 01:39:00,
2013-06-07 21:46:00,64.0,59.0,29.73,West,273,2.0,5.0,84,0.01,,,0.16,,2013-06-08 01:46:00,
2013-06-07 22:02:00,64.0,59.0,29.74,West,273,1.0,5.0,85,0.00,,,0.16,,2013-06-08 02:02:00,
2013-06-07 22:15:00,63.0,58.0,29.75,West,272,1.0,6.0,85,0.00,,,0.16,,2013-06-08 02:15:00,
2013-06-07 22:29:00,63.0,58.0,29.76,NW,306,3.0,6.0,84,0.00,,,0.16,,2013-06-08 02:29:00,
2013-06-07 22:35:00,63.0,58.0,29.77,West,273,2.0,4.0,84,0.00,,,0.16,,2013-06-08 02:35:00,
2013-06-07 22:48:00,63.0,58.0,29.77,West,273,2.0,4.0,84,0.00,,,0.16,,2013-06-08 02:48:00,
2013-06-07 23:00:00,63.0,58.0,29.78,WNW,298,3.0,6.0,84,0.00,,,0.16,,2013-06-08 03:00:00,
2013-06-07 23:10:00,63.0,58.0,29.78,NW,319,0.0,2.0,85,0.00,,,0.16,,2013-06-08 03:10:00,
2013-06-07 23:18:00,63.0,58.0,29.78,NW,319,0.0,2.0,85,0.00,,,0.16,,2013-06-08 03:18:00,
2013-06-07 23:27:00,62.0,57.0,29.78,West,260,0.0,3.0,85,0.00,,,0.15,,2013-06-08 03:27:00,
2013-06-07 23:52:00,62.0,57.0,29.78,West,260,0.0,3.0,85,0.00,,,0.15,,2013-06-08 03:52:00,